Time;durP1;ratioP1;P1;durP2;ratioP2;P2;SDS_P1;SDS_P2;PMS_P1;PMS_P2;Temp;Humidity;BMP_temperature;BMP_pressure;BME280_temperature;BME280_humidity;BME280_pressure;Samples;Min_cycle;Max_cycle;Signal;HPM_P1;HPM_P2
2021/11/21 00:02:02;;;;;;;18.45;8.10;;;;;;;;;;6215255;23;20080;-90
2021/11/21 00:04:28;;;;;;;16.95;8.38;;;;;;;;;;6214951;23;20005;-91
2021/11/21 00:06:54;;;;;;;19.83;8.35;;;;;;;;;;6215794;23;20004;-90
2021/11/21 00:09:21;;;;;;;18.23;8.52;;;;;;;;;;6215428;23;20457;-90
2021/11/21 00:11:47;;;;;;;17.17;7.70;;;;;;;;;;6215384;23;20374;-89
2021/11/21 00:14:13;;;;;;;19.38;7.90;;;;;;;;;;6216514;23;20307;-90
2021/11/21 00:16:40;;;;;;;21.90;8.65;;;;;;;;;;6216658;23;20053;-90
2021/11/21 00:19:06;;;;;;;22.42;8.75;;;;;;;;;;6215143;23;20095;-90
2021/11/21 00:21:33;;;;;;;18.17;8.18;;;;;;;;;;6215237;23;20393;-90
2021/11/21 00:24:00;;;;;;;21.25;8.55;;;;;;;;;;6216659;23;20008;-90
2021/11/21 00:26:26;;;;;;;19.10;8.68;;;;;;;;;;6217071;23;20009;-90
2021/11/21 00:28:52;;;;;;;20.45;8.90;;;;;;;;;;6217204;23;20009;-89
2021/11/21 00:31:19;;;;;;;23.20;9.38;;;;;;;;;;6190151;23;20008;-89
2021/11/21 00:33:45;;;;;;;26.60;9.75;;;;;;;;;;6190228;23;20350;-89
2021/11/21 00:36:13;;;;;;;25.05;9.20;;;;;;;;;;6190361;23;20077;-90
2021/11/21 00:38:39;;;;;;;23.05;9.38;;;;;;;;;;6189821;23;20043;-90
2021/11/21 00:41:06;;;;;;;19.13;8.40;;;;;;;;;;6216617;23;20001;-90
2021/11/21 00:43:33;;;;;;;19.40;7.45;;;;;;;;;;6190337;23;20311;-88
2021/11/21 00:46:00;;;;;;;17.63;8.15;;;;;;;;;;6190014;23;20005;-90
2021/11/21 00:48:27;;;;;;;20.40;7.82;;;;;;;;;;6190351;23;20036;-91
2021/11/21 00:50:54;;;;;;;21.20;8.88;;;;;;;;;;6216624;23;20003;-90
2021/11/21 00:53:21;;;;;;;16.77;7.80;;;;;;;;;;6216468;23;20003;-88
2021/11/21 00:55:53;;;;;;;18.05;8.65;;;;;;;;;;6190151;23;20012;-90
2021/11/21 00:58:20;;;;;;;14.35;6.50;;;;;;;;;;6190202;23;20012;-90
2021/11/21 01:00:48;;;;;;;14.93;6.82;;;;;;;;;;6190107;23;20001;-91
2021/11/21 01:03:17;;;;;;;18.23;7.10;;;;;;;;;;6217157;23;20004;-92
2021/11/21 01:05:45;;;;;;;17.15;6.75;;;;;;;;;;6190136;23;20012;-90
2021/11/21 01:08:12;;;;;;;16.17;7.20;;;;;;;;;;6189966;23;20004;-88
2021/11/21 01:10:38;;;;;;;17.25;7.30;;;;;;;;;;6189888;23;20096;-89
2021/11/21 01:13:05;;;;;;;16.35;7.03;;;;;;;;;;6189948;23;20001;-90
2021/11/21 01:15:32;;;;;;;17.05;7.22;;;;;;;;;;6190407;23;20004;-90
2021/11/21 01:17:59;;;;;;;18.10;7.18;;;;;;;;;;6191596;23;20031;-90
2021/11/21 01:20:27;;;;;;;16.52;6.43;;;;;;;;;;6218770;23;20010;-92
2021/11/21 01:22:53;;;;;;;16.20;7.05;;;;;;;;;;6191948;23;20001;-89
2021/11/21 01:25:20;;;;;;;18.13;7.38;;;;;;;;;;6192006;23;20050;-89
2021/11/21 01:27:47;;;;;;;16.52;6.68;;;;;;;;;;6212975;23;20438;-91
2021/11/21 01:30:15;;;;;;;17.35;6.53;;;;;;;;;;6216973;23;20378;-90
2021/11/21 01:32:42;;;;;;;18.63;7.72;;;;;;;;;;6216661;23;20014;-90
2021/11/21 01:35:09;;;;;;;16.13;7.05;;;;;;;;;;6216879;23;20005;-89
2021/11/21 01:37:35;;;;;;;17.02;7.45;;;;;;;;;;6216570;23;20510;-90
2021/11/21 01:40:02;;;;;;;21.60;8.45;;;;;;;;;;6216668;23;20088;-92
2021/11/21 01:42:28;;;;;;;17.45;8.20;;;;;;;;;;6216787;23;20008;-90
2021/11/21 01:44:54;;;;;;;22.10;8.43;;;;;;;;;;6218627;23;20007;-91
2021/11/21 01:47:21;;;;;;;19.85;8.13;;;;;;;;;;6216557;23;20008;-89
2021/11/21 01:49:47;;;;;;;17.08;7.80;;;;;;;;;;6216759;23;20462;-88
2021/11/21 01:52:13;;;;;;;19.40;7.80;;;;;;;;;;6216745;23;20009;-89
2021/11/21 01:54:39;;;;;;;23.55;9.23;;;;;;;;;;6216645;23;20437;-89
2021/11/21 01:57:05;;;;;;;22.38;8.52;;;;;;;;;;6216548;23;20377;-90
2021/11/21 01:59:32;;;;;;;18.77;8.20;;;;;;;;;;6217716;23;20008;-88
2021/11/21 02:01:58;;;;;;;20.70;8.05;;;;;;;;;;6218982;23;20001;-91
2021/11/21 02:04:24;;;;;;;19.45;7.60;;;;;;;;;;6216615;23;20311;-90
2021/11/21 02:06:51;;;;;;;20.95;9.25;;;;;;;;;;6216568;23;20090;-90
2021/11/21 02:09:17;;;;;;;19.60;8.00;;;;;;;;;;6217781;23;20011;-90
2021/11/21 02:11:44;;;;;;;20.17;8.98;;;;;;;;;;6216420;23;20005;-90
2021/11/21 02:14:10;;;;;;;20.17;8.65;;;;;;;;;;6216452;23;20066;-90
2021/11/21 02:16:36;;;;;;;21.63;9.00;;;;;;;;;;6216458;23;20329;-88
2021/11/21 02:19:03;;;;;;;25.23;8.15;;;;;;;;;;6216369;23;20016;-90
2021/11/21 02:21:29;;;;;;;17.60;8.45;;;;;;;;;;6218259;23;20088;-89
2021/11/21 02:23:56;;;;;;;23.48;9.88;;;;;;;;;;6216288;23;20009;-90
2021/11/21 02:26:23;;;;;;;23.52;11.20;;;;;;;;;;6216073;23;20013;-90
2021/11/21 02:28:53;;;;;;;28.70;11.30;;;;;;;;;;6216002;23;20005;-88
2021/11/21 02:31:19;;;;;;;26.63;11.88;;;;;;;;;;6216245;23;20005;-90
2021/11/21 02:33:49;;;;;;;25.20;11.45;;;;;;;;;;6216304;23;20019;-90
2021/11/21 02:36:15;;;;;;;26.17;11.82;;;;;;;;;;6216142;23;20000;-89
2021/11/21 02:38:41;;;;;;;26.98;11.82;;;;;;;;;;6216048;23;20052;-90
2021/11/21 02:41:09;;;;;;;27.75;10.90;;;;;;;;;;6216212;23;20430;-90
2021/11/21 02:43:36;;;;;;;23.65;10.55;;;;;;;;;;6217683;23;20430;-91
2021/11/21 02:46:02;;;;;;;25.35;10.30;;;;;;;;;;6216336;23;20005;-89
2021/11/21 02:48:29;;;;;;;25.92;11.25;;;;;;;;;;6215997;23;20338;-90
2021/11/21 02:50:56;;;;;;;26.13;11.50;;;;;;;;;;6216012;23;20016;-90
2021/11/21 02:53:26;;;;;;;22.58;10.32;;;;;;;;;;6218110;23;20004;-90
2021/11/21 02:55:53;;;;;;;24.85;10.77;;;;;;;;;;6215978;23;20461;-90
2021/11/21 02:58:20;;;;;;;24.30;11.30;;;;;;;;;;6215859;23;20048;-90
2021/11/21 03:00:46;;;;;;;26.85;11.98;;;;;;;;;;6217250;23;20031;-90
2021/11/21 03:03:13;;;;;;;23.75;10.25;;;;;;;;;;6215910;23;20422;-90
2021/11/21 03:05:40;;;;;;;31.67;11.18;;;;;;;;;;6215961;23;20142;-90
2021/11/21 03:08:07;;;;;;;23.40;11.10;;;;;;;;;;6215970;23;20062;-90
2021/11/21 03:10:33;;;;;;;27.98;10.88;;;;;;;;;;6215800;23;20008;-90
2021/11/21 03:13:04;;;;;;;24.42;9.88;;;;;;;;;;6215886;23;20330;-90
2021/11/21 03:15:31;;;;;;;24.15;10.95;;;;;;;;;;6215756;23;20001;-90
2021/11/21 03:17:57;;;;;;;20.80;10.23;;;;;;;;;;6217869;23;20376;-91
2021/11/21 03:20:26;;;;;;;19.52;9.85;;;;;;;;;;6217067;23;20051;-88
2021/11/21 03:22:53;;;;;;;20.63;9.98;;;;;;;;;;6215832;23;20027;-90
2021/11/21 03:25:19;;;;;;;24.10;10.27;;;;;;;;;;6215848;23;20009;-90
2021/11/21 03:27:46;;;;;;;30.13;10.63;;;;;;;;;;6215502;23;20100;-90
2021/11/21 03:30:13;;;;;;;25.42;10.95;;;;;;;;;;6215569;23;20488;-90
2021/11/21 03:32:40;;;;;;;25.10;10.43;;;;;;;;;;6215835;23;20035;-91
2021/11/21 03:35:07;;;;;;;25.45;11.95;;;;;;;;;;6217731;23;20001;-87
2021/11/21 03:37:34;;;;;;;27.05;11.77;;;;;;;;;;6215402;23;20030;-89
2021/11/21 03:40:00;;;;;;;24.65;12.00;;;;;;;;;;6215668;23;20009;-91
2021/11/21 03:42:26;;;;;;;30.45;12.55;;;;;;;;;;6217073;23;20001;-89
2021/11/21 03:44:53;;;;;;;29.63;12.50;;;;;;;;;;6215474;23;20011;-90
2021/11/21 03:47:19;;;;;;;24.67;10.90;;;;;;;;;;6215444;23;20414;-89
2021/11/21 03:49:46;;;;;;;19.92;9.60;;;;;;;;;;6215439;23;20032;-89
2021/11/21 03:52:12;;;;;;;23.77;10.38;;;;;;;;;;6215507;23;20015;-88
2021/11/21 03:54:39;;;;;;;24.95;10.90;;;;;;;;;;6217534;23;20001;-89
2021/11/21 03:57:05;;;;;;;20.83;9.57;;;;;;;;;;6215554;23;20019;-89
2021/11/21 03:59:32;;;;;;;24.52;9.95;;;;;;;;;;6216895;23;20009;-90
2021/11/21 04:01:59;;;;;;;22.55;9.70;;;;;;;;;;6215454;23;20050;-90
2021/11/21 04:04:29;;;;;;;19.83;8.82;;;;;;;;;;6216164;23;20080;-90
2021/11/21 04:06:55;;;;;;;23.73;10.88;;;;;;;;;;6215473;23;20001;-90
2021/11/21 04:09:22;;;;;;;24.25;11.73;;;;;;;;;;6217259;23;20016;-90
2021/11/21 04:11:49;;;;;;;26.73;12.02;;;;;;;;;;6215467;23;20005;-88
2021/11/21 04:14:16;;;;;;;24.23;11.18;;;;;;;;;;6216680;23;20011;-90
2021/11/21 04:16:43;;;;;;;21.88;10.88;;;;;;;;;;6215282;23;20032;-90
2021/11/21 04:19:09;;;;;;;28.67;11.82;;;;;;;;;;6216650;23;20012;-88
2021/11/21 04:21:36;;;;;;;28.08;11.45;;;;;;;;;;6215593;23;20047;-90
2021/11/21 04:24:02;;;;;;;23.75;10.32;;;;;;;;;;6215534;23;20004;-89
2021/11/21 04:26:29;;;;;;;20.08;9.48;;;;;;;;;;6216349;23;20040;-90
2021/11/21 04:28:55;;;;;;;20.23;9.85;;;;;;;;;;6216766;23;20001;-90
2021/11/21 04:31:22;;;;;;;20.15;8.82;;;;;;;;;;6216701;23;20004;-90
2021/11/21 04:33:48;;;;;;;21.00;9.73;;;;;;;;;;6217335;23;20418;-90
2021/11/21 04:36:14;;;;;;;21.77;10.05;;;;;;;;;;6190515;23;20005;-90
2021/11/21 04:38:41;;;;;;;21.42;9.48;;;;;;;;;;6190082;23;20012;-91
2021/11/21 04:41:07;;;;;;;18.77;9.60;;;;;;;;;;6190147;23;20001;-90
2021/11/21 04:43:33;;;;;;;22.27;9.35;;;;;;;;;;6217377;23;20111;-90
2021/11/21 04:46:00;;;;;;;23.40;10.07;;;;;;;;;;6190030;23;20005;-90
2021/11/21 04:48:26;;;;;;;23.33;9.98;;;;;;;;;;6190254;23;20026;-89
2021/11/21 04:50:53;;;;;;;19.70;8.80;;;;;;;;;;6190743;23;20000;-89
2021/11/21 04:53:19;;;;;;;20.60;8.88;;;;;;;;;;6218553;23;20005;-90
2021/11/21 04:55:46;;;;;;;23.65;9.75;;;;;;;;;;6191999;23;20008;-89
2021/11/21 04:58:14;;;;;;;17.90;9.27;;;;;;;;;;6192003;23;20012;-90
2021/11/21 05:00:41;;;;;;;21.40;8.63;;;;;;;;;;6192156;23;20007;-90
2021/11/21 05:03:08;;;;;;;23.35;9.85;;;;;;;;;;6191910;23;20008;-90
2021/11/21 05:05:34;;;;;;;25.17;10.23;;;;;;;;;;6218588;23;20054;-90
2021/11/21 05:08:00;;;;;;;23.83;11.32;;;;;;;;;;6192199;23;20054;-90
2021/11/21 05:10:27;;;;;;;22.10;10.45;;;;;;;;;;6192139;23;20005;-90
2021/11/21 05:12:53;;;;;;;28.02;12.02;;;;;;;;;;6191802;23;20001;-90
2021/11/21 05:15:22;;;;;;;24.90;11.70;;;;;;;;;;6191927;23;20027;-90
2021/11/21 05:17:49;;;;;;;26.95;12.63;;;;;;;;;;6191850;23;20426;-89
2021/11/21 05:20:16;;;;;;;27.00;11.50;;;;;;;;;;6191617;23;20016;-88
2021/11/21 05:22:43;;;;;;;29.92;11.60;;;;;;;;;;6218605;23;20027;-90
2021/11/21 05:25:10;;;;;;;26.35;12.57;;;;;;;;;;6191807;23;20429;-89
2021/11/21 05:27:36;;;;;;;26.55;11.88;;;;;;;;;;6210371;23;20091;-89
2021/11/21 05:30:04;;;;;;;24.20;10.38;;;;;;;;;;6216941;23;20083;-90
2021/11/21 05:32:30;;;;;;;20.63;9.60;;;;;;;;;;6216697;23;20001;-90
2021/11/21 05:34:56;;;;;;;20.25;9.75;;;;;;;;;;6218857;23;20032;-90
2021/11/21 05:37:23;;;;;;;23.08;10.27;;;;;;;;;;6216813;23;20027;-90
2021/11/21 05:39:49;;;;;;;20.77;8.93;;;;;;;;;;6217766;23;20012;-90
2021/11/21 05:42:15;;;;;;;23.25;10.63;;;;;;;;;;6216674;23;20453;-90
2021/11/21 05:44:41;;;;;;;20.25;9.50;;;;;;;;;;6216628;23;20008;-88
2021/11/21 05:47:07;;;;;;;21.55;9.52;;;;;;;;;;6216582;23;20414;-89
2021/11/21 05:49:34;;;;;;;21.77;10.70;;;;;;;;;;6217868;23;20001;-90
2021/11/21 05:52:00;;;;;;;22.25;10.15;;;;;;;;;;6216446;23;20422;-90
2021/11/21 05:54:27;;;;;;;22.58;10.38;;;;;;;;;;6216561;23;20036;-90
2021/11/21 05:56:53;;;;;;;23.02;10.80;;;;;;;;;;6216880;23;20005;-88
2021/11/21 05:59:19;;;;;;;24.65;11.00;;;;;;;;;;6216293;23;20016;-88
2021/11/21 06:01:45;;;;;;;30.23;11.57;;;;;;;;;;6216324;23;20501;-87
2021/11/21 06:04:11;;;;;;;27.60;13.15;;;;;;;;;;6217668;23;20008;-85
2021/11/21 06:06:37;;;;;;;32.72;13.88;;;;;;;;;;6217194;23;20001;-89
2021/11/21 06:09:03;;;;;;;28.13;13.48;;;;;;;;;;6216508;23;20338;-88
2021/11/21 06:11:30;;;;;;;25.23;11.70;;;;;;;;;;6216468;23;20050;-88
2021/11/21 06:13:56;;;;;;;24.08;12.07;;;;;;;;;;6218523;23;20005;-87
2021/11/21 06:16:22;;;;;;;29.25;12.50;;;;;;;;;;6217982;23;20334;-87
2021/11/21 06:18:48;;;;;;;27.23;12.85;;;;;;;;;;6216206;23;20044;-88
2021/11/21 06:21:14;;;;;;;26.55;12.23;;;;;;;;;;6216776;23;20020;-87
2021/11/21 06:23:41;;;;;;;25.25;11.43;;;;;;;;;;6216471;23;20437;-89
2021/11/21 06:26:07;;;;;;;24.65;11.73;;;;;;;;;;6216064;23;20004;-87
2021/11/21 06:28:34;;;;;;;29.80;13.10;;;;;;;;;;6216317;23;20009;-89
2021/11/21 06:31:00;;;;;;;29.65;13.25;;;;;;;;;;6216247;23;20084;-88
2021/11/21 06:33:26;;;;;;;28.50;12.60;;;;;;;;;;6216077;23;20452;-87
2021/11/21 06:35:53;;;;;;;28.20;12.60;;;;;;;;;;6216011;23;20012;-89
2021/11/21 06:38:21;;;;;;;28.40;12.38;;;;;;;;;;6216163;23;20015;-90
2021/11/21 06:40:47;;;;;;;25.98;12.73;;;;;;;;;;6216231;23;20012;-90
2021/11/21 06:43:13;;;;;;;25.48;12.07;;;;;;;;;;6216157;23;20434;-87
2021/11/21 06:45:39;;;;;;;26.90;13.43;;;;;;;;;;6217359;23;20004;-89
2021/11/21 06:48:10;;;;;;;26.30;12.55;;;;;;;;;;6216165;23;20008;-90
2021/11/21 06:50:37;;;;;;;34.20;14.20;;;;;;;;;;6215961;23;20005;-88
2021/11/21 06:53:04;;;;;;;28.98;12.73;;;;;;;;;;6215904;23;20320;-92
2021/11/21 06:55:30;;;;;;;30.67;13.40;;;;;;;;;;6216007;23;20066;-91
2021/11/21 06:57:56;;;;;;;31.77;13.73;;;;;;;;;;6215681;23;20009;-90
2021/11/21 07:00:23;;;;;;;31.30;13.35;;;;;;;;;;6216180;23;20027;-94
2021/11/21 07:02:49;;;;;;;28.95;13.63;;;;;;;;;;6217573;23;20001;-90
2021/11/21 07:05:16;;;;;;;25.08;11.65;;;;;;;;;;6216088;23;20337;-91
2021/11/21 07:07:43;;;;;;;25.85;11.82;;;;;;;;;;6216220;23;20023;-90
2021/11/21 07:10:12;;;;;;;27.42;12.88;;;;;;;;;;6216383;23;19996;-90
2021/11/21 07:12:38;;;;;;;27.00;13.57;;;;;;;;;;6216533;23;20083;-89
2021/11/21 07:15:04;;;;;;;27.08;13.85;;;;;;;;;;6218600;23;20448;-90
2021/11/21 07:17:31;;;;;;;29.10;13.07;;;;;;;;;;6215971;23;20071;-93
2021/11/21 07:19:57;;;;;;;34.35;13.57;;;;;;;;;;6216037;23;20012;-91
2021/11/21 07:22:23;;;;;;;27.50;13.50;;;;;;;;;;6216430;23;20005;-91
2021/11/21 07:24:49;;;;;;;25.58;12.38;;;;;;;;;;6216319;23;20031;-93
2021/11/21 07:27:16;;;;;;;26.00;13.50;;;;;;;;;;6215644;23;20036;-91
2021/11/21 07:29:42;;;;;;;31.83;13.65;;;;;;;;;;6215638;23;20418;-91
2021/11/21 07:32:10;;;;;;;27.35;13.32;;;;;;;;;;6215810;23;20090;-89
2021/11/21 07:34:36;;;;;;;28.08;13.15;;;;;;;;;;6215768;23;20009;-91
2021/11/21 07:37:03;;;;;;;26.90;13.45;;;;;;;;;;6217147;23;20001;-90
2021/11/21 07:39:29;;;;;;;28.88;12.60;;;;;;;;;;6217566;23;20414;-90
2021/11/21 07:41:55;;;;;;;24.67;12.43;;;;;;;;;;6215438;23;20026;-88
2021/11/21 07:44:21;;;;;;;30.45;13.70;;;;;;;;;;6215531;23;20050;-88
2021/11/21 07:46:48;;;;;;;33.40;16.17;;;;;;;;;;6215300;23;20000;-87
2021/11/21 07:49:14;;;;;;;31.15;15.95;;;;;;;;;;6215311;23;20020;-91
2021/11/21 07:51:40;;;;;;;28.30;13.73;;;;;;;;;;6215384;23;20001;-89
2021/11/21 07:54:06;;;;;;;32.20;13.65;;;;;;;;;;6215352;23;20012;-89
2021/11/21 07:56:32;;;;;;;30.33;14.20;;;;;;;;;;6215559;23;20112;-91
2021/11/21 07:58:59;;;;;;;25.33;13.15;;;;;;;;;;6216637;23;20016;-89
2021/11/21 08:01:25;;;;;;;26.88;12.98;;;;;;;;;;6215391;23;20058;-88
2021/11/21 08:03:51;;;;;;;33.05;13.40;;;;;;;;;;6215352;23;20011;-88
2021/11/21 08:06:18;;;;;;;30.83;15.10;;;;;;;;;;6215314;23;20001;-90
2021/11/21 08:08:44;;;;;;;27.95;13.57;;;;;;;;;;6215224;23;20012;-88
2021/11/21 08:11:10;;;;;;;26.08;13.82;;;;;;;;;;6215642;23;20005;-87
2021/11/21 08:13:39;;;;;;;25.00;13.25;;;;;;;;;;6216380;23;20013;-89
2021/11/21 08:16:05;;;;;;;28.98;13.20;;;;;;;;;;6216608;23;20323;-90
2021/11/21 08:18:31;;;;;;;26.73;13.15;;;;;;;;;;6215241;23;20048;-88
2021/11/21 08:20:58;;;;;;;25.88;13.68;;;;;;;;;;6214997;23;20005;-88
2021/11/21 08:23:24;;;;;;;32.35;14.05;;;;;;;;;;6214931;23;20005;-89
2021/11/21 08:25:51;;;;;;;32.65;15.10;;;;;;;;;;6217685;23;20427;-87
2021/11/21 08:28:17;;;;;;;30.13;17.17;;;;;;;;;;6190185;23;20378;-88
2021/11/21 08:30:43;;;;;;;32.17;16.25;;;;;;;;;;6189483;23;20091;-89
2021/11/21 08:33:10;;;;;;;39.00;19.90;;;;;;;;;;6189515;23;20004;-89
2021/11/21 08:35:37;;;;;;;27.33;14.32;;;;;;;;;;6189827;23;20008;-89
2021/11/21 08:38:03;;;;;;;26.92;14.20;;;;;;;;;;6191088;23;20009;-89
2021/11/21 08:40:30;;;;;;;28.45;14.60;;;;;;;;;;6189924;23;20446;-87
2021/11/21 08:43:00;;;;;;;27.33;14.23;;;;;;;;;;6189791;23;20008;-91
2021/11/21 08:45:29;;;;;;;29.08;15.13;;;;;;;;;;6190048;23;20008;-92
2021/11/21 08:47:56;;;;;;;27.75;14.02;;;;;;;;;;6190183;23;20008;-91
2021/11/21 08:50:23;;;;;;;29.98;14.48;;;;;;;;;;6190003;23;20013;-91
2021/11/21 08:52:49;;;;;;;26.67;13.70;;;;;;;;;;6190129;23;20013;-92
2021/11/21 08:55:15;;;;;;;30.75;16.48;;;;;;;;;;6190106;23;20005;-90
2021/11/21 08:57:42;;;;;;;31.25;14.90;;;;;;;;;;6191348;23;20008;-90
2021/11/21 09:00:09;;;;;;;31.98;16.92;;;;;;;;;;6216642;23;20084;-92
2021/11/21 09:02:36;;;;;;;28.75;16.00;;;;;;;;;;6190802;23;20012;-92
2021/11/21 09:05:06;;;;;;;32.10;17.40;;;;;;;;;;6190366;23;20009;-93
2021/11/21 09:07:34;;;;;;;31.48;15.68;;;;;;;;;;6190265;23;19997;-93
2021/11/21 09:10:00;;;;;;;31.13;15.73;;;;;;;;;;6190194;23;20000;-92
2021/11/21 09:12:26;;;;;;;30.75;16.27;;;;;;;;;;6190159;23;20457;-94
2021/11/21 09:14:53;;;;;;;32.22;16.25;;;;;;;;;;6190058;23;20008;-94
2021/11/21 09:17:21;;;;;;;30.60;16.48;;;;;;;;;;6190601;23;20032;-94
2021/11/21 09:19:47;;;;;;;29.33;15.75;;;;;;;;;;6189990;23;20013;-95
2021/11/21 09:22:14;;;;;;;27.00;15.70;;;;;;;;;;6190330;23;20498;-93
2021/11/21 09:24:40;;;;;;;30.08;15.75;;;;;;;;;;6190146;23;20016;-94
2021/11/21 09:27:07;;;;;;;28.73;15.07;;;;;;;;;;6202680;23;20036;-94
2021/11/21 09:29:34;;;;;;;32.65;16.08;;;;;;;;;;6215301;23;20468;-94
2021/11/21 09:32:00;;;;;;;30.77;15.40;;;;;;;;;;6215201;23;20005;-94
2021/11/21 09:34:27;;;;;;;31.98;17.20;;;;;;;;;;6215170;23;20499;-93
2021/11/21 09:36:53;;;;;;;32.22;17.40;;;;;;;;;;6216187;23;20001;-94
2021/11/21 09:39:20;;;;;;;31.60;16.70;;;;;;;;;;6217109;23;20476;-93
2021/11/21 09:41:46;;;;;;;33.50;18.85;;;;;;;;;;6216803;23;20437;-94
2021/11/21 09:44:14;;;;;;;32.95;17.67;;;;;;;;;;6216800;23;20028;-93
2021/11/21 09:46:41;;;;;;;31.92;16.75;;;;;;;;;;6217327;23;20362;-93
2021/11/21 09:49:07;;;;;;;34.35;16.65;;;;;;;;;;6217079;23;20315;-93
2021/11/21 09:51:34;;;;;;;32.25;17.33;;;;;;;;;;6218526;23;20028;-93
2021/11/21 09:54:00;;;;;;;37.25;19.75;;;;;;;;;;6216794;23;20009;-93
2021/11/21 09:56:26;;;;;;;31.92;17.27;;;;;;;;;;6216613;23;20008;-94
2021/11/21 09:58:53;;;;;;;29.70;14.77;;;;;;;;;;6216585;23;20020;-93
2021/11/21 10:01:39;;;;;;;29.42;15.65;;;;;;;;;;6216590;23;20080;-93
2021/11/21 10:04:06;;;;;;;27.33;14.18;;;;;;;;;;6216563;23;20004;-94
2021/11/21 10:06:48;;;;;;;25.35;13.45;;;;;;;;;;6216282;23;20004;-90
2021/11/21 10:09:18;;;;;;;31.40;16.10;;;;;;;;;;6216917;23;20082;-89
2021/11/21 10:12:00;;;;;;;29.60;16.55;;;;;;;;;;6216574;23;20005;-89
2021/11/21 10:14:26;;;;;;;28.25;14.75;;;;;;;;;;6216141;23;20004;-91
2021/11/21 10:16:53;;;;;;;29.25;15.98;;;;;;;;;;6216189;23;20015;-90
2021/11/21 10:19:19;;;;;;;28.95;16.27;;;;;;;;;;6216577;23;20367;-91
2021/11/21 10:21:56;;;;;;;32.13;16.33;;;;;;;;;;6216175;23;20111;-90
2021/11/21 10:24:24;;;;;;;34.08;18.33;;;;;;;;;;6216805;23;20013;-90
2021/11/21 10:27:09;;;;;;;27.98;15.50;;;;;;;;;;6216095;23;20075;-90
2021/11/21 10:29:37;;;;;;;27.30;15.45;;;;;;;;;;6216397;23;20011;-90
2021/11/21 10:32:13;;;;;;;27.45;14.35;;;;;;;;;;6216120;23;20056;-90
2021/11/21 10:34:47;;;;;;;32.05;15.85;;;;;;;;;;6216263;23;20023;-90
2021/11/21 10:37:13;;;;;;;27.20;15.18;;;;;;;;;;6216270;23;20005;-88
2021/11/21 10:39:45;;;;;;;28.08;14.68;;;;;;;;;;6215872;23;20012;-91
2021/11/21 10:42:11;;;;;;;31.77;16.70;;;;;;;;;;6217148;23;20083;-92
2021/11/21 10:44:37;;;;;;;26.48;15.23;;;;;;;;;;6216740;23;20084;-89
2021/11/21 10:47:04;;;;;;;28.00;16.13;;;;;;;;;;6216441;23;20047;-89
2021/11/21 10:49:35;;;;;;;29.58;15.88;;;;;;;;;;6216048;23;20004;-90
2021/11/21 10:52:08;;;;;;;29.02;16.27;;;;;;;;;;6216231;23;20418;-90
2021/11/21 10:54:42;;;;;;;32.58;16.63;;;;;;;;;;6216487;23;20444;-90
2021/11/21 10:57:09;;;;;;;31.98;17.27;;;;;;;;;;6215995;23;20009;-90
2021/11/21 10:59:51;;;;;;;34.03;17.60;;;;;;;;;;6216012;23;20349;-91
2021/11/21 11:02:20;;;;;;;29.33;16.83;;;;;;;;;;6217251;23;20473;-91
2021/11/21 11:05:00;;;;;;;28.85;15.60;;;;;;;;;;6215797;23;20032;-91
2021/11/21 11:07:27;;;;;;;33.90;17.45;;;;;;;;;;6215847;23;20013;-89
2021/11/21 11:09:54;;;;;;;31.55;17.10;;;;;;;;;;6216082;23;20087;-90
2021/11/21 11:12:21;;;;;;;30.95;16.90;;;;;;;;;;6215783;23;20027;-89
2021/11/21 11:14:47;;;;;;;30.73;16.98;;;;;;;;;;6216133;23;20073;-91
2021/11/21 11:17:13;;;;;;;26.65;15.40;;;;;;;;;;6216532;23;20411;-90
2021/11/21 11:19:40;;;;;;;29.23;18.48;;;;;;;;;;6216304;23;20449;-92
2021/11/21 11:22:07;;;;;;;33.40;17.40;;;;;;;;;;6215839;23;20009;-95
2021/11/21 11:24:40;;;;;;;33.42;17.02;;;;;;;;;;6216496;23;20414;-93
2021/11/21 11:27:15;;;;;;;32.00;16.95;;;;;;;;;;6215935;23;20430;-91
2021/11/21 11:29:47;;;;;;;31.52;16.55;;;;;;;;;;6215674;23;20449;-92
2021/11/21 11:32:32;;;;;;;32.67;17.40;;;;;;;;;;6216179;23;20000;-96
2021/11/21 11:34:59;;;;;;;27.58;15.32;;;;;;;;;;6217109;23;20004;-94
2021/11/21 11:37:39;;;;;;;30.95;16.23;;;;;;;;;;6215961;23;20074;-95
2021/11/21 11:40:06;;;;;;;29.17;14.75;;;;;;;;;;6216113;23;20430;-92
2021/11/21 11:42:37;;;;;;;30.00;15.48;;;;;;;;;;6216168;23;20039;-94
2021/11/21 11:45:06;;;;;;;30.88;16.45;;;;;;;;;;6216175;23;20072;-91
2021/11/21 11:47:32;;;;;;;25.67;14.00;;;;;;;;;;6216570;23;20004;-90
2021/11/21 11:49:59;;;;;;;26.35;13.30;;;;;;;;;;6215649;23;20008;-92
2021/11/21 11:52:43;;;;;;;25.05;12.98;;;;;;;;;;6216564;23;19996;-87
2021/11/21 11:55:11;;;;;;;24.60;13.05;;;;;;;;;;6214882;23;20004;-89
2021/11/21 11:57:37;;;;;;;22.88;12.18;;;;;;;;;;6214839;23;20015;-89
2021/11/21 12:00:26;;;;;;;21.77;11.65;;;;;;;;;;6214249;23;20020;-87
2021/11/21 12:02:55;;;;;;;17.08;10.63;;;;;;;;;;6215022;23;20088;-88
2021/11/21 12:05:28;;;;;;;23.50;12.60;;;;;;;;;;6215451;23;20047;-88
2021/11/21 12:07:54;;;;;;;;;;;;;;;;;;6215469;23;20055;-88
2021/11/21 12:10:22;;;;;;;19.80;11.18;;;;;;;;;;6215647;23;20217;-89
2021/11/21 12:12:49;;;;;;;21.30;11.25;;;;;;;;;;6214867;23;20308;-90
2021/11/21 12:15:34;;;;;;;24.05;12.48;;;;;;;;;;6214901;23;20055;-88
2021/11/21 12:18:01;;;;;;;22.23;11.73;;;;;;;;;;6214970;23;20011;-90
2021/11/21 12:20:46;;;;;;;17.67;10.15;;;;;;;;;;6215319;23;20004;-88
2021/11/21 12:23:13;;;;;;;19.70;9.95;;;;;;;;;;6214531;23;20011;-88
2021/11/21 12:25:40;;;;;;;15.60;9.63;;;;;;;;;;6214812;23;20087;-90
2021/11/21 12:28:06;;;;;;;16.98;9.50;;;;;;;;;;6214094;23;20422;-87
2021/11/21 12:30:33;;;;;;;16.67;9.85;;;;;;;;;;6214558;23;20005;-88
2021/11/21 12:33:02;;;;;;;17.98;9.68;;;;;;;;;;6216191;23;20434;-89
2021/11/21 12:35:31;;;;;;;17.13;10.18;;;;;;;;;;6216203;23;20027;-88
2021/11/21 12:38:33;;;;;;;17.50;9.73;;;;;;;;;;6216922;23;20008;-88
2021/11/21 12:41:01;;;;;;;19.30;10.25;;;;;;;;;;6215186;23;20016;-87
2021/11/21 12:43:27;;;;;;;17.38;10.35;;;;;;;;;;6215342;23;20059;-88
2021/11/21 12:46:01;;;;;;;24.60;12.85;;;;;;;;;;6216491;23;20008;-89
2021/11/21 12:48:27;;;;;;;;;;;;;;;;;;6215494;23;20028;-88
2021/11/21 12:50:55;;;;;;;17.73;11.07;;;;;;;;;;6216851;23;19900;-88
2021/11/21 12:53:26;;;;;;;17.38;11.10;;;;;;;;;;6214591;23;20005;-89
2021/11/21 12:55:56;;;;;;;19.00;10.13;;;;;;;;;;6214689;23;20005;-91
2021/11/21 12:58:24;;;;;;;20.90;11.55;;;;;;;;;;6214625;23;20151;-90
2021/11/21 13:00:50;;;;;;;20.23;10.60;;;;;;;;;;6214723;23;20337;-88
2021/11/21 13:03:18;;;;;;;18.17;11.25;;;;;;;;;;6214797;23;20411;-88
2021/11/21 13:05:49;;;;;;;17.25;10.57;;;;;;;;;;6214783;23;20009;-87
2021/11/21 13:08:20;;;;;;;16.15;9.75;;;;;;;;;;6214964;23;20000;-89
2021/11/21 13:10:48;;;;;;;20.20;10.88;;;;;;;;;;6215208;23;20044;-85
2021/11/21 13:13:18;;;;;;;16.83;10.70;;;;;;;;;;6217888;23;19996;-88
2021/11/21 13:15:44;;;;;;;20.75;10.85;;;;;;;;;;6216791;23;20009;-87
2021/11/21 13:18:15;;;;;;;21.85;10.73;;;;;;;;;;6216229;23;20099;-87
2021/11/21 13:20:45;;;;;;;19.65;11.57;;;;;;;;;;6216318;23;20540;-87
2021/11/21 13:23:16;;;;;;;21.65;10.68;;;;;;;;;;6216205;23;20028;-88
2021/11/21 13:25:42;;;;;;;20.52;9.95;;;;;;;;;;6217659;23;20000;-86
2021/11/21 13:28:27;;;;;;;17.80;10.10;;;;;;;;;;6216067;23;20020;-94
2021/11/21 13:30:58;;;;;;;19.20;10.20;;;;;;;;;;6217713;23;20058;-93
2021/11/21 13:33:27;;;;;;;20.23;12.57;;;;;;;;;;6217284;23;20040;-93
2021/11/21 13:35:54;;;;;;;22.35;10.93;;;;;;;;;;6217353;23;20005;-93
2021/11/21 13:38:21;;;;;;;20.88;12.98;;;;;;;;;;6217444;23;20008;-90
2021/11/21 13:40:48;;;;;;;25.90;14.52;;;;;;;;;;6217579;23;20009;-92
2021/11/21 13:43:15;;;;;;;21.58;12.88;;;;;;;;;;6215645;23;20005;-90
2021/11/21 13:45:41;;;;;;;29.00;15.95;;;;;;;;;;6216476;23;20066;-90
2021/11/21 13:48:29;;;;;;;25.33;14.15;;;;;;;;;;6216752;23;20419;-91
2021/11/21 13:50:56;;;;;;;25.98;15.07;;;;;;;;;;6215172;23;20013;-91
2021/11/21 13:53:23;;;;;;;26.77;15.50;;;;;;;;;;6217022;23;20043;-90
2021/11/21 13:56:13;;;;;;;26.55;14.88;;;;;;;;;;6216562;23;20055;-92
2021/11/21 13:58:41;;;;;;;25.38;15.13;;;;;;;;;;6218513;23;20008;-91
2021/11/21 14:01:08;;;;;;;29.38;15.45;;;;;;;;;;6216686;23;20445;-90
2021/11/21 14:03:43;;;;;;;27.65;15.60;;;;;;;;;;6217963;23;20079;-90
2021/11/21 14:06:11;;;;;;;25.77;13.88;;;;;;;;;;6217282;23;20438;-92
2021/11/21 14:08:39;;;;;;;25.60;13.43;;;;;;;;;;6218652;23;20005;-92
2021/11/21 14:11:25;;;;;;;;;;;;;;;;;;;;;
2021/11/21 14:13:53;;;;;;;27.63;13.88;;;;;;;;;;6220249;23;20080;-92
2021/11/21 14:16:20;;;;;;;28.67;14.05;;;;;;;;;;6217467;23;20012;-92
2021/11/21 14:18:55;;;;;;;27.98;13.40;;;;;;;;;;6216379;23;20020;-92
2021/11/21 14:21:23;;;;;;;23.48;12.63;;;;;;;;;;6216400;23;20016;-91
2021/11/21 14:23:51;;;;;;;26.38;14.52;;;;;;;;;;6216072;23;20008;-91
2021/11/21 14:26:18;;;;;;;31.80;15.35;;;;;;;;;;6215837;23;20008;-91